This demonstration page uses our WeatherBlox Daily Observations layout. Learn more.

36.19886, -115.1175

Hourly Observations for July 21, 2019

Temp ( °F °C ) Dew Point ( °F °C ) Humidity (%) Winds ( mph kmh ) Pressure ( in mb ) Visibility ( mi km ) Precip ( " mm )
12:53 am 00:53 Clear 87 30.6 33 0.6 14 14 SW 6 9 29.77 1008 10 16.09344 0 0
1:53 am 01:53 Clear 84 28.9 37 2.8 19 19 WNW 5 7 29.77 1008 10 16.09344 0 0
2:53 am 02:53 Clear 80 26.7 37 2.8 21 21 N 3 6 29.77 1008 10 16.09344 0 0
3:53 am 03:53 Clear 79 26.1 36 2.2 21 21 N 6 9 29.8 1009 10 16.09344 0 0
4:53 am 04:53 Clear 77 25 35 1.7 22 22 NNW 6 9 29.8 1009 10 16.09344 0 0
5:53 am 05:53 Sunny 77 25 37 2.8 24 24 N 6 9 29.83 1010 10 16.09344 0 0
6:53 am 06:53 Sunny 79 26.1 35 1.7 20 20 N 6 9 29.85 1011 10 16.09344 0 0
7:53 am 07:53 Sunny 85 29.4 35 1.7 17 17 NNE 5 7 29.85 1011 10 16.09344 0 0
8:53 am 08:53 Sunny 89 31.7 35 1.7 15 15 SE 6 9 29.88 1012 10 16.09344 0 0
9:53 am 09:53 Sunny 92 33.3 32 0 12 12 SSE 9 15 29.88 1012 10 16.09344 0 0
10:53 am 10:53 Sunny 94 34.4 34 1.1 12 12 SSE 3 6 29.88 1012 10 16.09344 0 0
11:53 am 11:53 Sunny 99 37.2 33 0.6 10 10 SSE 12 19 29.88 1012 10 16.09344 0 0
12:53 pm 12:53 Sunny 100 37.8 34 1.1 10 10 SSE 6 9 29.85 1011 10 16.09344 0 0
1:53 pm 13:53 Sunny 102 38.9 40 4.4 12 12 VRB 3 6 29.83 1010 10 16.09344 0 0
2:53 pm 14:53 Sunny 104 40 37 2.8 10 10 SSE 9 15 29.83 1010 10 16.09344 0 0
3:53 pm 15:53 Sunny 105 40.6 40 4.4 11 11 VRB 7 11 29.8 1009 10 16.09344 0 0
4:53 pm 16:53 Sunny 106 41.1 35 1.7 9 9 SSE 12 19 29.77 1008 10 16.09344 0 0
5:53 pm 17:53 Sunny 105 40.6 42 5.6 12 12 ESE 12 19 29.77 1008 10 16.09344 0 0
6:53 pm 18:53 Sunny 105 40.6 36 2.2 9 9 SSW 9 15 29.77 1008 10 16.09344 0 0
7:53 pm 19:53 Sunny 103 39.4 32 0 8 8 WSW 5 7 29.77 1008 10 16.09344 0 0
8:53 pm 20:53 Clear 100 37.8 31 -0.6 9 9 WSW 8 13 29.77 1008 10 16.09344 0 0
9:53 pm 21:53 Clear 98 36.7 30 -1.1 9 9 WSW 7 11 29.8 1009 10 16.09344 0 0
10:53 pm 22:53 Clear 96 35.6 31 -0.6 10 10 SSW 3 6 29.8 1009 10 16.09344 0 0
11:53 pm 23:53 Clear 94 34.4 33 0.6 12 12 SSW 6 9 29.8 1009 10 16.09344 0 0

Powered by AerisWeather